createdAt,value
2023-03-17T00:00:36.700Z,39.79
2023-03-17T00:04:36.762Z,39.80
2023-03-17T00:08:36.869Z,39.84
2023-03-17T00:12:36.949Z,39.80
2023-03-17T00:16:37.005Z,39.63
2023-03-17T00:20:37.080Z,39.70
2023-03-17T00:24:37.177Z,39.51
2023-03-17T00:28:37.252Z,39.51
2023-03-17T00:32:37.392Z,39.36
2023-03-17T00:36:37.433Z,39.41
2023-03-17T00:40:37.501Z,39.31
2023-03-17T00:44:37.558Z,39.28
2023-03-17T00:48:37.645Z,39.18
2023-03-17T00:52:37.752Z,39.13
2023-03-17T00:56:37.923Z,39.07
2023-03-17T01:00:37.991Z,38.95
2023-03-17T01:04:38.076Z,38.91
2023-03-17T01:08:38.223Z,38.85
2023-03-17T01:12:38.267Z,38.63
2023-03-17T01:16:38.413Z,38.66
2023-03-17T01:20:38.493Z,38.82
2023-03-17T01:24:38.589Z,38.61
2023-03-17T01:28:38.668Z,38.72
2023-03-17T01:32:38.864Z,38.73
2023-03-17T01:36:38.920Z,38.67
2023-03-17T01:40:39.022Z,38.52
2023-03-17T01:44:39.172Z,38.46
2023-03-17T01:48:39.326Z,38.33
2023-03-17T01:52:39.449Z,38.30
2023-03-17T01:56:39.569Z,38.24
2023-03-17T02:00:39.787Z,38.28
2023-03-17T02:04:39.875Z,38.25
2023-03-17T02:08:39.923Z,38.05
2023-03-17T02:12:40.063Z,38.10
2023-03-17T02:16:40.301Z,37.96
2023-03-17T02:20:40.367Z,37.97
2023-03-17T02:24:40.533Z,37.86
2023-03-17T02:28:40.673Z,38.00
2023-03-17T02:32:40.852Z,37.86
2023-03-17T02:36:41.061Z,37.96
2023-03-17T02:40:41.119Z,37.78
2023-03-17T02:44:41.229Z,37.68
2023-03-17T02:48:41.400Z,37.59
2023-03-17T02:52:41.521Z,37.63
2023-03-17T02:56:41.717Z,37.42
2023-03-17T03:00:41.837Z,37.39
2023-03-17T03:04:42.181Z,37.27
2023-03-17T03:08:42.222Z,37.22
2023-03-17T03:12:42.329Z,37.25
2023-03-17T03:16:42.511Z,37.08
2023-03-17T03:20:42.675Z,37.05
2023-03-17T03:24:42.879Z,36.91
2023-03-17T03:28:42.994Z,36.84
2023-03-17T03:32:43.208Z,36.74
2023-03-17T03:36:43.344Z,36.67
2023-03-17T03:40:43.574Z,36.58
2023-03-17T03:44:43.753Z,36.42
2023-03-17T03:48:43.984Z,36.39
2023-03-17T03:52:44.153Z,36.53
2023-03-17T03:56:44.347Z,36.45
2023-03-17T04:00:44.574Z,36.28
2023-03-17T04:04:44.838Z,36.30
2023-03-17T04:08:44.945Z,36.19
2023-03-17T04:12:45.115Z,36.05
2023-03-17T04:16:45.332Z,36.24
2023-03-17T04:20:45.481Z,36.11
2023-03-17T04:24:45.702Z,35.97
2023-03-17T04:28:45.942Z,35.96
2023-03-17T04:32:46.225Z,36.00
2023-03-17T04:36:46.362Z,35.82
2023-03-17T04:40:46.576Z,35.97
2023-03-17T04:44:46.772Z,36.02
2023-03-17T04:48:47.000Z,35.79
2023-03-17T04:52:46.970Z,35.72
2023-03-17T04:56:46.916Z,35.67
2023-03-17T05:00:46.925Z,35.63
2023-03-17T05:04:46.858Z,35.51
2023-03-17T05:08:46.826Z,35.40
2023-03-17T05:12:46.737Z,35.35
2023-03-17T05:16:46.802Z,35.30
2023-03-17T05:20:46.709Z,35.32
2023-03-17T05:24:46.673Z,35.36
2023-03-17T05:28:46.701Z,35.30
2023-03-17T05:32:46.614Z,35.23
2023-03-17T05:36:46.588Z,35.22
2023-03-17T05:40:46.520Z,35.17
2023-03-17T05:44:46.500Z,35.08
2023-03-17T05:48:46.429Z,35.06
2023-03-17T05:52:46.424Z,38.29
2023-03-17T05:56:46.378Z,39.30
2023-03-17T06:00:46.337Z,40.37
2023-03-17T06:04:46.317Z,41.30
2023-03-17T06:08:46.278Z,41.81
2023-03-17T06:12:46.502Z,42.38
2023-03-17T06:16:46.705Z,43.77
2023-03-17T06:20:46.927Z,45.34
2023-03-17T06:24:47.109Z,45.27
2023-03-17T06:28:47.315Z,45.68
2023-03-17T06:32:47.542Z,46.56
2023-03-17T06:36:47.667Z,47.22
2023-03-17T06:40:48.236Z,47.03
2023-03-17T06:44:48.258Z,47.33
2023-03-17T06:48:48.289Z,46.61
2023-03-17T06:52:48.778Z,47.35
2023-03-17T06:56:48.513Z,47.38
2023-03-17T07:00:48.776Z,47.38
2023-03-17T07:04:48.826Z,47.80
2023-03-17T07:08:49.259Z,47.75
2023-03-17T07:12:48.995Z,48.39
2023-03-17T07:16:49.202Z,48.74
2023-03-17T07:20:49.165Z,48.84
2023-03-17T07:24:49.414Z,49.48
2023-03-17T07:28:49.766Z,50.99
2023-03-17T07:32:49.386Z,51.10
2023-03-17T07:36:49.790Z,50.78
2023-03-17T07:40:49.367Z,50.84
2023-03-17T07:44:49.805Z,51.66
2023-03-17T07:48:50.266Z,52.52
2023-03-17T07:52:49.368Z,52.10
2023-03-17T07:56:49.781Z,52.97
2023-03-17T08:00:49.405Z,53.32
2023-03-17T08:04:49.426Z,52.64
2023-03-17T08:08:49.457Z,52.79
2023-03-17T08:12:49.467Z,52.68
2023-03-17T08:16:49.547Z,52.41
2023-03-17T08:20:49.770Z,52.29
2023-03-17T08:24:49.483Z,52.54
2023-03-17T08:28:49.458Z,52.26
2023-03-17T08:32:49.784Z,52.10
2023-03-17T08:36:49.527Z,51.97
2023-03-17T08:40:49.799Z,52.20
2023-03-17T08:44:49.854Z,52.43
2023-03-17T08:48:50.303Z,52.37
2023-03-17T08:52:50.301Z,52.80
2023-03-17T08:56:50.771Z,53.33
2023-03-17T09:00:50.532Z,52.94
2023-03-17T09:04:50.673Z,53.23
2023-03-17T09:08:51.323Z,53.09
2023-03-17T09:12:50.841Z,52.61
2023-03-17T09:16:50.769Z,52.83
2023-03-17T09:20:50.734Z,53.32
2023-03-17T09:24:50.736Z,53.22
2023-03-17T09:28:50.814Z,52.78
2023-03-17T09:32:50.763Z,53.30
2023-03-17T09:36:50.589Z,53.55
2023-03-17T09:40:50.853Z,53.23
2023-03-17T09:44:50.820Z,53.71
2023-03-17T09:48:50.807Z,53.82
2023-03-17T09:52:51.553Z,53.43
2023-03-17T09:56:50.574Z,53.81
2023-03-17T10:00:50.556Z,53.93
2023-03-17T10:04:50.915Z,53.46
2023-03-17T10:08:50.466Z,53.99
2023-03-17T10:12:50.422Z,53.85
2023-03-17T10:16:50.562Z,53.67
2023-03-17T10:20:51.701Z,54.27
2023-03-17T10:24:50.860Z,54.05
2023-03-17T10:28:50.686Z,54.13
2023-03-17T10:32:50.668Z,54.02
2023-03-17T10:36:50.815Z,53.74
2023-03-17T10:40:50.843Z,53.70
2023-03-17T10:44:50.883Z,53.35
2023-03-17T10:48:50.502Z,54.03
2023-03-17T10:52:50.834Z,54.01
2023-03-17T10:56:50.847Z,54.06
2023-03-17T11:00:50.401Z,54.19
2023-03-17T11:04:50.405Z,54.31
2023-03-17T11:08:50.340Z,53.52
2023-03-17T11:12:50.359Z,53.10
2023-03-17T11:16:50.429Z,53.53
2023-03-17T11:20:50.226Z,53.10
2023-03-17T11:24:50.210Z,52.72
2023-03-17T11:28:50.154Z,53.22
2023-03-17T11:32:50.409Z,53.09
2023-03-17T11:36:50.366Z,53.28
2023-03-17T11:40:50.170Z,53.37
2023-03-17T11:44:50.353Z,53.42
2023-03-17T11:48:50.366Z,52.89
2023-03-17T11:52:50.372Z,52.22
2023-03-17T11:56:50.061Z,52.73
2023-03-17T12:00:50.022Z,52.81
2023-03-17T12:04:50.387Z,52.99
2023-03-17T12:08:49.913Z,52.34
2023-03-17T12:12:49.881Z,51.32
2023-03-17T12:16:50.352Z,50.49
2023-03-17T12:20:49.866Z,50.23
2023-03-17T12:24:49.864Z,50.88
2023-03-17T12:28:49.785Z,51.40
2023-03-17T12:32:49.925Z,51.34
2023-03-17T12:36:49.920Z,51.21
2023-03-17T12:40:49.662Z,51.63
2023-03-17T12:44:49.890Z,51.88
2023-03-17T12:48:49.610Z,51.76
2023-03-17T12:52:49.564Z,51.89
2023-03-17T12:56:49.536Z,52.28
2023-03-17T13:00:49.621Z,52.40
2023-03-17T13:04:49.887Z,52.21
2023-03-17T13:08:49.580Z,52.80
2023-03-17T13:12:49.528Z,52.62
2023-03-17T13:16:49.483Z,52.35
2023-03-17T13:20:49.447Z,52.54
2023-03-17T13:24:49.426Z,52.87
2023-03-17T13:28:49.401Z,53.00
2023-03-17T13:32:49.364Z,52.90
2023-03-17T13:36:49.271Z,54.31
2023-03-17T13:40:49.471Z,54.43
2023-03-17T13:44:49.647Z,54.14
2023-03-17T13:48:49.858Z,54.17
2023-03-17T13:52:50.074Z,53.96
2023-03-17T13:56:50.259Z,53.78
2023-03-17T14:00:50.261Z,53.75
2023-03-17T14:04:50.196Z,53.46
2023-03-17T14:08:50.154Z,53.83
2023-03-17T14:12:51.223Z,54.66
2023-03-17T14:16:50.068Z,54.42
2023-03-17T14:20:50.049Z,53.88
2023-03-17T14:24:50.008Z,54.52
2023-03-17T14:28:49.964Z,54.89
2023-03-17T14:32:50.180Z,54.39
2023-03-17T14:36:50.070Z,53.61
2023-03-17T14:40:50.001Z,54.36
2023-03-17T14:44:49.972Z,54.92
2023-03-17T14:48:49.960Z,54.33
2023-03-17T14:52:49.914Z,53.70
2023-03-17T14:56:49.875Z,54.34
2023-03-17T15:00:49.918Z,55.03
2023-03-17T15:04:49.771Z,54.31
2023-03-17T15:08:49.767Z,53.54
2023-03-17T15:12:49.914Z,54.53
2023-03-17T15:16:49.875Z,53.88
2023-03-17T15:20:49.801Z,54.11
2023-03-17T15:24:49.793Z,53.79
2023-03-17T15:28:49.760Z,53.18
2023-03-17T15:32:49.702Z,53.48
2023-03-17T15:36:49.659Z,54.59
2023-03-17T15:40:49.614Z,54.55
2023-03-17T15:44:49.588Z,54.54
2023-03-17T15:48:49.536Z,54.05
2023-03-17T15:52:49.524Z,54.52
2023-03-17T15:56:49.640Z,54.24
2023-03-17T16:00:49.924Z,53.80
2023-03-17T16:04:49.842Z,54.58
2023-03-17T16:08:49.755Z,55.09
2023-03-17T16:12:49.764Z,54.50
2023-03-17T16:16:49.671Z,54.07
2023-03-17T16:20:49.659Z,54.70
2023-03-17T16:24:49.634Z,55.27
2023-03-17T16:28:49.570Z,54.54
2023-03-17T16:32:49.658Z,53.80
2023-03-17T16:36:49.506Z,54.83
2023-03-17T16:40:49.694Z,55.28
2023-03-17T16:44:49.711Z,54.81
2023-03-17T16:48:49.635Z,54.43
2023-03-17T16:52:49.598Z,54.45
2023-03-17T16:56:49.584Z,54.95
2023-03-17T17:00:49.509Z,54.75
2023-03-17T17:04:49.458Z,54.43
2023-03-17T17:08:49.430Z,54.74
2023-03-17T17:12:49.390Z,55.18
2023-03-17T17:16:49.337Z,54.36
2023-03-17T17:20:49.336Z,54.75
2023-03-17T17:24:49.311Z,54.60
2023-03-17T17:28:49.284Z,54.10
2023-03-17T17:32:49.236Z,55.40
2023-03-17T17:36:49.193Z,55.53
2023-03-17T17:40:49.167Z,55.20
2023-03-17T17:44:49.094Z,55.29
2023-03-17T17:48:49.078Z,55.32
2023-03-17T17:52:49.059Z,55.44
2023-03-17T17:56:49.009Z,54.64
2023-03-17T18:00:49.021Z,54.55
2023-03-17T18:04:49.306Z,54.71
2023-03-17T18:08:49.143Z,54.63
2023-03-17T18:12:49.084Z,54.59
2023-03-17T18:16:49.155Z,54.53
2023-03-17T18:20:49.033Z,54.43
2023-03-17T18:24:48.972Z,54.30
2023-03-17T18:28:48.939Z,54.16
2023-03-17T18:32:48.996Z,53.98
2023-03-17T18:36:48.891Z,53.84
2023-03-17T18:40:48.854Z,53.67
2023-03-17T18:44:48.815Z,53.52
2023-03-17T18:48:48.948Z,53.42
2023-03-17T18:52:48.925Z,53.22
2023-03-17T18:56:48.865Z,52.91
2023-03-17T19:00:48.892Z,52.71
2023-03-17T19:04:48.781Z,52.50
2023-03-17T19:08:48.775Z,52.39
2023-03-17T19:12:49.021Z,52.15
2023-03-17T19:16:48.706Z,51.95
2023-03-17T19:20:48.699Z,51.79
2023-03-17T19:24:48.625Z,51.53
2023-03-17T19:28:48.602Z,51.41
2023-03-17T19:32:48.848Z,51.26
2023-03-17T19:36:48.985Z,51.09
2023-03-17T19:40:48.962Z,50.86
2023-03-17T19:44:48.981Z,50.61
2023-03-17T19:48:48.920Z,50.48
2023-03-17T19:52:48.840Z,50.34
2023-03-17T19:56:48.839Z,50.12
2023-03-17T20:00:48.748Z,50.00
2023-03-17T20:04:48.790Z,49.79
2023-03-17T20:08:48.694Z,49.59
2023-03-17T20:12:48.681Z,49.43
2023-03-17T20:16:48.746Z,49.22
2023-03-17T20:20:48.718Z,49.08
2023-03-17T20:24:48.640Z,49.02
2023-03-17T20:28:48.597Z,48.83
2023-03-17T20:32:48.565Z,48.65
2023-03-17T20:36:48.513Z,48.44
2023-03-17T20:40:48.487Z,48.38
2023-03-17T20:44:48.427Z,48.25
2023-03-17T20:48:48.406Z,47.98
2023-03-17T20:52:48.351Z,47.96
2023-03-17T20:56:48.424Z,47.78
2023-03-17T21:00:48.405Z,47.58
2023-03-17T21:04:48.336Z,47.53
2023-03-17T21:08:48.273Z,47.39
2023-03-17T21:12:48.301Z,47.21
2023-03-17T21:16:48.233Z,47.10
2023-03-17T21:20:48.244Z,47.03
2023-03-17T21:24:48.189Z,46.78
2023-03-17T21:28:48.152Z,46.54
2023-03-17T21:32:48.072Z,46.48
2023-03-17T21:36:48.120Z,46.49
2023-03-17T21:40:48.058Z,46.02
2023-03-17T21:44:48.015Z,46.03
2023-03-17T21:48:47.986Z,45.88
2023-03-17T21:52:47.941Z,45.71
2023-03-17T21:56:47.893Z,45.63
2023-03-17T22:00:48.167Z,45.42
2023-03-17T22:04:47.837Z,45.47
2023-03-17T22:08:47.787Z,45.20
2023-03-17T22:12:47.750Z,45.13
2023-03-17T22:16:47.926Z,44.96
2023-03-17T22:20:47.777Z,44.91
2023-03-17T22:24:47.699Z,44.65
2023-03-17T22:28:47.697Z,44.44
2023-03-17T22:32:47.713Z,44.45
2023-03-17T22:36:47.624Z,44.33
2023-03-17T22:40:47.561Z,44.25
2023-03-17T22:44:47.541Z,43.94
2023-03-17T22:48:47.492Z,43.85
2023-03-17T22:52:47.440Z,43.76
2023-03-17T22:56:47.580Z,43.62
2023-03-17T23:00:47.530Z,43.63
2023-03-17T23:04:47.502Z,43.59
2023-03-17T23:08:47.454Z,43.56
2023-03-17T23:12:47.446Z,43.55
2023-03-17T23:16:47.455Z,43.52
2023-03-17T23:20:47.384Z,43.50
2023-03-17T23:24:47.338Z,43.42
2023-03-17T23:28:47.282Z,43.52
2023-03-17T23:32:47.317Z,43.37
2023-03-17T23:36:47.421Z,43.30
2023-03-17T23:40:47.354Z,43.40
2023-03-17T23:44:47.334Z,43.23
2023-03-17T23:48:47.301Z,43.14
2023-03-17T23:52:47.298Z,42.86
2023-03-17T23:56:47.204Z,42.83
